sensor_id;sensor_type;location;lat;lon;timestamp;temperature;humidity
30069;DHT22;16894;49.456;10.644;2023-03-29T00:02:23;3.50;99.90
30069;DHT22;16894;49.456;10.644;2023-03-29T00:05:04;3.50;99.90
30069;DHT22;16894;49.456;10.644;2023-03-29T00:07:41;3.60;99.90
30069;DHT22;16894;49.456;10.644;2023-03-29T00:10:16;3.60;99.90
30069;DHT22;16894;49.456;10.644;2023-03-29T00:12:52;3.60;99.90
30069;DHT22;16894;49.456;10.644;2023-03-29T00:15:28;3.60;99.90
30069;DHT22;16894;49.456;10.644;2023-03-29T00:18:03;3.60;99.90
30069;DHT22;16894;49.456;10.644;2023-03-29T00:20:39;3.50;99.90
30069;DHT22;16894;49.456;10.644;2023-03-29T00:23:15;3.50;99.90
30069;DHT22;16894;49.456;10.644;2023-03-29T00:25:53;3.50;99.90
30069;DHT22;16894;49.456;10.644;2023-03-29T00:28:29;3.50;99.90
30069;DHT22;16894;49.456;10.644;2023-03-29T00:31:07;3.50;99.90
30069;DHT22;16894;49.456;10.644;2023-03-29T00:33:44;3.50;99.90
30069;DHT22;16894;49.456;10.644;2023-03-29T00:36:20;3.50;99.90
30069;DHT22;16894;49.456;10.644;2023-03-29T00:38:56;3.50;99.90
30069;DHT22;16894;49.456;10.644;2023-03-29T00:41:32;3.50;99.90
30069;DHT22;16894;49.456;10.644;2023-03-29T00:47:31;3.50;99.90
30069;DHT22;16894;49.456;10.644;2023-03-29T00:53:09;3.60;99.90
30069;DHT22;16894;49.456;10.644;2023-03-29T00:55:55;3.60;99.90
30069;DHT22;16894;49.456;10.644;2023-03-29T00:58:38;3.70;99.90
30069;DHT22;16894;49.456;10.644;2023-03-29T01:01:26;3.80;99.90
30069;DHT22;16894;49.456;10.644;2023-03-29T01:04:31;3.80;99.90
30069;DHT22;16894;49.456;10.644;2023-03-29T01:07:21;3.90;99.90
30069;DHT22;16894;49.456;10.644;2023-03-29T01:12:45;4.10;99.90
30069;DHT22;16894;49.456;10.644;2023-03-29T01:15:24;4.20;99.90
30069;DHT22;16894;49.456;10.644;2023-03-29T01:18:00;4.30;99.90
30069;DHT22;16894;49.456;10.644;2023-03-29T01:20:55;4.30;99.90
30069;DHT22;16894;49.456;10.644;2023-03-29T01:29:56;4.60;99.90
30069;DHT22;16894;49.456;10.644;2023-03-29T01:32:49;4.70;99.90
30069;DHT22;16894;49.456;10.644;2023-03-29T01:35:44;4.80;99.90
30069;DHT22;16894;49.456;10.644;2023-03-29T01:38:33;4.90;99.90
30069;DHT22;16894;49.456;10.644;2023-03-29T01:41:12;4.90;99.90
30069;DHT22;16894;49.456;10.644;2023-03-29T01:44:52;4.90;99.90
30069;DHT22;16894;49.456;10.644;2023-03-29T01:47:18;4.80;99.90
30069;DHT22;16894;49.456;10.644;2023-03-29T01:50:14;4.80;99.90
30069;DHT22;16894;49.456;10.644;2023-03-29T01:53:05;4.60;99.90
30069;DHT22;16894;49.456;10.644;2023-03-29T01:55:46;4.60;99.90
30069;DHT22;16894;49.456;10.644;2023-03-29T01:58:31;4.50;99.90
30069;DHT22;16894;49.456;10.644;2023-03-29T02:01:08;4.50;99.90
30069;DHT22;16894;49.456;10.644;2023-03-29T02:03:49;4.50;99.90
30069;DHT22;16894;49.456;10.644;2023-03-29T02:06:27;4.50;99.90
30069;DHT22;16894;49.456;10.644;2023-03-29T02:09:04;4.40;99.90
30069;DHT22;16894;49.456;10.644;2023-03-29T02:11:41;4.40;99.90
30069;DHT22;16894;49.456;10.644;2023-03-29T02:14:17;4.40;99.90
30069;DHT22;16894;49.456;10.644;2023-03-29T02:16:53;4.40;99.90
30069;DHT22;16894;49.456;10.644;2023-03-29T02:19:29;4.30;99.90
30069;DHT22;16894;49.456;10.644;2023-03-29T02:22:08;4.30;99.90
30069;DHT22;16894;49.456;10.644;2023-03-29T02:24:45;4.30;99.90
30069;DHT22;16894;49.456;10.644;2023-03-29T02:27:22;4.20;99.90
30069;DHT22;16894;49.456;10.644;2023-03-29T02:29:58;4.20;99.90
30069;DHT22;16894;49.456;10.644;2023-03-29T02:33:29;4.20;99.90
30069;DHT22;16894;49.456;10.644;2023-03-29T02:35:56;4.20;99.90
30069;DHT22;16894;49.456;10.644;2023-03-29T02:38:33;4.20;99.90
30069;DHT22;16894;49.456;10.644;2023-03-29T02:41:09;4.10;99.90
30069;DHT22;16894;49.456;10.644;2023-03-29T02:43:46;4.10;99.90
30069;DHT22;16894;49.456;10.644;2023-03-29T02:46:23;4.10;99.90
30069;DHT22;16894;49.456;10.644;2023-03-29T02:48:59;4.10;99.90
30069;DHT22;16894;49.456;10.644;2023-03-29T02:51:36;4.10;99.90
30069;DHT22;16894;49.456;10.644;2023-03-29T02:54:19;4.10;99.90
30069;DHT22;16894;49.456;10.644;2023-03-29T02:57:00;4.10;99.90
30069;DHT22;16894;49.456;10.644;2023-03-29T02:59:38;4.10;99.90
30069;DHT22;16894;49.456;10.644;2023-03-29T03:02:15;4.10;99.90
30069;DHT22;16894;49.456;10.644;2023-03-29T03:04:52;4.10;99.90
30069;DHT22;16894;49.456;10.644;2023-03-29T03:07:28;4.20;99.90
30069;DHT22;16894;49.456;10.644;2023-03-29T03:10:03;4.10;99.90
30069;DHT22;16894;49.456;10.644;2023-03-29T03:12:39;4.10;99.90
30069;DHT22;16894;49.456;10.644;2023-03-29T03:15:15;4.10;99.90
30069;DHT22;16894;49.456;10.644;2023-03-29T03:17:51;4.20;99.90
30069;DHT22;16894;49.456;10.644;2023-03-29T03:20:26;4.20;99.90
30069;DHT22;16894;49.456;10.644;2023-03-29T03:23:02;4.20;99.90
30069;DHT22;16894;49.456;10.644;2023-03-29T03:25:37;4.20;99.90
30069;DHT22;16894;49.456;10.644;2023-03-29T03:28:13;4.20;99.90
30069;DHT22;16894;49.456;10.644;2023-03-29T03:30:49;4.20;99.90
30069;DHT22;16894;49.456;10.644;2023-03-29T03:33:24;4.10;99.90
30069;DHT22;16894;49.456;10.644;2023-03-29T03:36:01;4.20;99.90
30069;DHT22;16894;49.456;10.644;2023-03-29T03:38:40;4.20;99.90
30069;DHT22;16894;49.456;10.644;2023-03-29T03:41:16;4.20;99.90
30069;DHT22;16894;49.456;10.644;2023-03-29T03:43:52;4.20;99.90
30069;DHT22;16894;49.456;10.644;2023-03-29T03:46:27;4.20;99.90
30069;DHT22;16894;49.456;10.644;2023-03-29T03:49:03;4.20;99.90
30069;DHT22;16894;49.456;10.644;2023-03-29T03:51:39;4.20;99.90
30069;DHT22;16894;49.456;10.644;2023-03-29T03:54:16;4.20;99.90
30069;DHT22;16894;49.456;10.644;2023-03-29T03:56:52;4.30;99.90
30069;DHT22;16894;49.456;10.644;2023-03-29T03:59:27;4.30;99.90
30069;DHT22;16894;49.456;10.644;2023-03-29T04:02:04;4.30;99.90
30069;DHT22;16894;49.456;10.644;2023-03-29T04:04:39;4.30;99.90
30069;DHT22;16894;49.456;10.644;2023-03-29T04:07:15;4.30;99.90
30069;DHT22;16894;49.456;10.644;2023-03-29T04:09:52;4.40;99.90
30069;DHT22;16894;49.456;10.644;2023-03-29T04:12:27;4.30;99.90
30069;DHT22;16894;49.456;10.644;2023-03-29T04:15:03;4.30;99.90
30069;DHT22;16894;49.456;10.644;2023-03-29T04:17:39;4.30;99.90
30069;DHT22;16894;49.456;10.644;2023-03-29T04:20:15;4.30;99.90
30069;DHT22;16894;49.456;10.644;2023-03-29T04:22:51;4.30;99.90
30069;DHT22;16894;49.456;10.644;2023-03-29T04:25:26;4.30;99.90
30069;DHT22;16894;49.456;10.644;2023-03-29T04:28:02;4.30;99.90
30069;DHT22;16894;49.456;10.644;2023-03-29T04:30:38;4.30;99.90
30069;DHT22;16894;49.456;10.644;2023-03-29T04:33:14;4.30;99.90
30069;DHT22;16894;49.456;10.644;2023-03-29T04:35:50;4.30;99.90
30069;DHT22;16894;49.456;10.644;2023-03-29T04:38:26;4.30;99.90
30069;DHT22;16894;49.456;10.644;2023-03-29T04:41:02;4.30;99.90
30069;DHT22;16894;49.456;10.644;2023-03-29T04:43:39;4.30;99.90
30069;DHT22;16894;49.456;10.644;2023-03-29T04:46:15;4.40;99.90
30069;DHT22;16894;49.456;10.644;2023-03-29T04:48:51;4.40;99.90
30069;DHT22;16894;49.456;10.644;2023-03-29T04:51:26;4.40;99.90
30069;DHT22;16894;49.456;10.644;2023-03-29T04:54:02;4.30;99.90
30069;DHT22;16894;49.456;10.644;2023-03-29T04:56:38;4.30;99.90
30069;DHT22;16894;49.456;10.644;2023-03-29T04:59:13;4.30;99.90
30069;DHT22;16894;49.456;10.644;2023-03-29T05:01:49;4.30;99.90
30069;DHT22;16894;49.456;10.644;2023-03-29T05:04:24;4.30;99.90
30069;DHT22;16894;49.456;10.644;2023-03-29T05:07:00;4.20;99.90
30069;DHT22;16894;49.456;10.644;2023-03-29T05:09:36;4.10;99.90
30069;DHT22;16894;49.456;10.644;2023-03-29T05:12:12;4.10;99.90
30069;DHT22;16894;49.456;10.644;2023-03-29T05:14:47;4.10;99.90
30069;DHT22;16894;49.456;10.644;2023-03-29T05:17:23;4.00;99.90
30069;DHT22;16894;49.456;10.644;2023-03-29T05:20:02;4.00;99.90
30069;DHT22;16894;49.456;10.644;2023-03-29T05:22:43;4.00;99.90
30069;DHT22;16894;49.456;10.644;2023-03-29T05:25:19;4.10;99.90
30069;DHT22;16894;49.456;10.644;2023-03-29T05:27:55;4.10;99.90
30069;DHT22;16894;49.456;10.644;2023-03-29T05:30:30;4.00;99.90
30069;DHT22;16894;49.456;10.644;2023-03-29T05:33:06;4.00;99.90
30069;DHT22;16894;49.456;10.644;2023-03-29T05:35:42;4.00;99.90
30069;DHT22;16894;49.456;10.644;2023-03-29T05:38:18;4.00;99.90
30069;DHT22;16894;49.456;10.644;2023-03-29T05:40:53;4.00;99.90
30069;DHT22;16894;49.456;10.644;2023-03-29T05:43:29;4.10;99.90
30069;DHT22;16894;49.456;10.644;2023-03-29T05:46:05;4.20;99.90
30069;DHT22;16894;49.456;10.644;2023-03-29T05:48:41;4.30;99.90
30069;DHT22;16894;49.456;10.644;2023-03-29T05:51:17;4.40;99.90
30069;DHT22;16894;49.456;10.644;2023-03-29T05:53:53;4.50;99.90
30069;DHT22;16894;49.456;10.644;2023-03-29T05:56:28;4.50;99.90
30069;DHT22;16894;49.456;10.644;2023-03-29T05:59:04;4.40;99.90
30069;DHT22;16894;49.456;10.644;2023-03-29T06:01:40;4.50;99.90
30069;DHT22;16894;49.456;10.644;2023-03-29T06:04:16;4.60;99.90
30069;DHT22;16894;49.456;10.644;2023-03-29T06:06:52;4.60;99.90
30069;DHT22;16894;49.456;10.644;2023-03-29T06:09:27;4.60;99.90
30069;DHT22;16894;49.456;10.644;2023-03-29T06:12:03;4.70;99.90
30069;DHT22;16894;49.456;10.644;2023-03-29T06:14:39;4.80;99.90
30069;DHT22;16894;49.456;10.644;2023-03-29T06:17:15;4.90;99.90
30069;DHT22;16894;49.456;10.644;2023-03-29T06:19:50;5.00;99.90
30069;DHT22;16894;49.456;10.644;2023-03-29T06:22:27;5.00;99.90
30069;DHT22;16894;49.456;10.644;2023-03-29T06:25:04;5.10;99.90
30069;DHT22;16894;49.456;10.644;2023-03-29T06:27:40;5.20;99.90
30069;DHT22;16894;49.456;10.644;2023-03-29T06:30:16;5.30;99.90
30069;DHT22;16894;49.456;10.644;2023-03-29T06:32:51;5.30;99.90
30069;DHT22;16894;49.456;10.644;2023-03-29T06:35:27;5.40;99.90
30069;DHT22;16894;49.456;10.644;2023-03-29T06:38:03;5.50;99.90
30069;DHT22;16894;49.456;10.644;2023-03-29T06:40:39;5.60;99.90
30069;DHT22;16894;49.456;10.644;2023-03-29T06:43:14;5.60;99.90
30069;DHT22;16894;49.456;10.644;2023-03-29T06:45:50;5.70;99.90
30069;DHT22;16894;49.456;10.644;2023-03-29T06:48:26;5.80;99.90
30069;DHT22;16894;49.456;10.644;2023-03-29T06:51:01;5.80;99.90
30069;DHT22;16894;49.456;10.644;2023-03-29T06:53:37;5.90;99.90
30069;DHT22;16894;49.456;10.644;2023-03-29T06:56:12;6.00;99.90
30069;DHT22;16894;49.456;10.644;2023-03-29T06:58:48;6.00;99.90
30069;DHT22;16894;49.456;10.644;2023-03-29T07:01:24;6.00;99.90
30069;DHT22;16894;49.456;10.644;2023-03-29T07:04:01;6.10;99.90
30069;DHT22;16894;49.456;10.644;2023-03-29T07:06:42;6.30;99.90
30069;DHT22;16894;49.456;10.644;2023-03-29T07:09:22;6.50;99.90
30069;DHT22;16894;49.456;10.644;2023-03-29T07:12:00;6.70;99.90
30069;DHT22;16894;49.456;10.644;2023-03-29T07:14:36;6.70;99.90
30069;DHT22;16894;49.456;10.644;2023-03-29T07:17:11;6.80;99.90
30069;DHT22;16894;49.456;10.644;2023-03-29T07:19:47;6.80;99.90
30069;DHT22;16894;49.456;10.644;2023-03-29T07:22:23;6.80;99.90
30069;DHT22;16894;49.456;10.644;2023-03-29T07:24:58;7.00;99.90
30069;DHT22;16894;49.456;10.644;2023-03-29T07:27:35;7.10;99.90
30069;DHT22;16894;49.456;10.644;2023-03-29T07:30:15;7.30;99.90
30069;DHT22;16894;49.456;10.644;2023-03-29T07:32:51;7.60;99.90
30069;DHT22;16894;49.456;10.644;2023-03-29T07:35:27;7.80;99.90
30069;DHT22;16894;49.456;10.644;2023-03-29T07:38:03;7.90;99.90
30069;DHT22;16894;49.456;10.644;2023-03-29T07:40:40;8.00;99.90
30069;DHT22;16894;49.456;10.644;2023-03-29T07:43:15;8.00;99.90
30069;DHT22;16894;49.456;10.644;2023-03-29T07:45:52;8.00;99.90
30069;DHT22;16894;49.456;10.644;2023-03-29T07:48:28;8.20;99.90
30069;DHT22;16894;49.456;10.644;2023-03-29T07:51:04;8.40;99.90
30069;DHT22;16894;49.456;10.644;2023-03-29T07:53:40;8.50;99.90
30069;DHT22;16894;49.456;10.644;2023-03-29T07:56:16;8.70;99.90
30069;DHT22;16894;49.456;10.644;2023-03-29T07:58:51;8.90;99.90
30069;DHT22;16894;49.456;10.644;2023-03-29T08:01:27;9.00;99.90
30069;DHT22;16894;49.456;10.644;2023-03-29T08:04:03;9.20;99.90
30069;DHT22;16894;49.456;10.644;2023-03-29T08:06:39;9.40;99.90
30069;DHT22;16894;49.456;10.644;2023-03-29T08:09:14;9.50;99.90
30069;DHT22;16894;49.456;10.644;2023-03-29T08:11:50;9.60;99.90
30069;DHT22;16894;49.456;10.644;2023-03-29T08:14:26;9.90;99.90
30069;DHT22;16894;49.456;10.644;2023-03-29T08:17:03;10.10;99.90
30069;DHT22;16894;49.456;10.644;2023-03-29T08:19:39;10.20;99.90
30069;DHT22;16894;49.456;10.644;2023-03-29T08:22:15;10.20;99.90
30069;DHT22;16894;49.456;10.644;2023-03-29T08:24:50;10.30;99.90
30069;DHT22;16894;49.456;10.644;2023-03-29T08:27:26;10.50;99.90
30069;DHT22;16894;49.456;10.644;2023-03-29T08:30:03;10.60;99.90
30069;DHT22;16894;49.456;10.644;2023-03-29T08:32:39;10.70;99.90
30069;DHT22;16894;49.456;10.644;2023-03-29T08:35:15;10.60;99.80
30069;DHT22;16894;49.456;10.644;2023-03-29T08:37:51;10.80;99.90
30069;DHT22;16894;49.456;10.644;2023-03-29T08:40:28;11.20;99.90
30069;DHT22;16894;49.456;10.644;2023-03-29T08:46:02;12.00;98.50
30069;DHT22;16894;49.456;10.644;2023-03-29T08:48:46;12.20;98.60
30069;DHT22;16894;49.456;10.644;2023-03-29T08:51:29;12.30;98.50
30069;DHT22;16894;49.456;10.644;2023-03-29T08:54:20;12.30;98.30
30069;DHT22;16894;49.456;10.644;2023-03-29T08:57:01;12.70;98.20
30069;DHT22;16894;49.456;10.644;2023-03-29T08:59:40;12.40;96.70
30069;DHT22;16894;49.456;10.644;2023-03-29T09:02:23;12.20;96.70
30069;DHT22;16894;49.456;10.644;2023-03-29T09:05:25;12.10;97.40
30069;DHT22;16894;49.456;10.644;2023-03-29T09:08:02;12.00;95.70
30069;DHT22;16894;49.456;10.644;2023-03-29T09:17:38;11.90;96.60
30069;DHT22;16894;49.456;10.644;2023-03-29T09:31:40;12.00;95.50
30069;DHT22;16894;49.456;10.644;2023-03-29T09:34:23;12.40;95.10
30069;DHT22;16894;49.456;10.644;2023-03-29T09:37:10;12.80;95.80
30069;DHT22;16894;49.456;10.644;2023-03-29T09:39:47;13.10;95.40
30069;DHT22;16894;49.456;10.644;2023-03-29T09:42:26;13.50;95.10
30069;DHT22;16894;49.456;10.644;2023-03-29T09:45:04;13.60;94.20
30069;DHT22;16894;49.456;10.644;2023-03-29T09:48:07;13.60;94.20
30069;DHT22;16894;49.456;10.644;2023-03-29T09:50:48;13.40;93.80
30069;DHT22;16894;49.456;10.644;2023-03-29T09:53:27;13.60;95.00
30069;DHT22;16894;49.456;10.644;2023-03-29T09:56:03;13.70;93.20
30069;DHT22;16894;49.456;10.644;2023-03-29T09:58:42;13.70;93.50
30069;DHT22;16894;49.456;10.644;2023-03-29T10:01:18;13.50;93.00
30069;DHT22;16894;49.456;10.644;2023-03-29T10:03:54;13.50;93.30
30069;DHT22;16894;49.456;10.644;2023-03-29T10:06:31;13.40;92.50
30069;DHT22;16894;49.456;10.644;2023-03-29T10:09:18;13.40;93.30
30069;DHT22;16894;49.456;10.644;2023-03-29T10:11:56;13.20;92.60
30069;DHT22;16894;49.456;10.644;2023-03-29T10:14:44;13.00;93.90
30069;DHT22;16894;49.456;10.644;2023-03-29T10:17:22;13.00;94.00
30069;DHT22;16894;49.456;10.644;2023-03-29T10:20:01;13.00;94.20
30069;DHT22;16894;49.456;10.644;2023-03-29T10:22:37;12.90;93.90
30069;DHT22;16894;49.456;10.644;2023-03-29T10:25:16;12.90;93.40
30069;DHT22;16894;49.456;10.644;2023-03-29T10:28:05;12.80;93.50
30069;DHT22;16894;49.456;10.644;2023-03-29T10:30:44;12.90;94.40
30069;DHT22;16894;49.456;10.644;2023-03-29T10:33:23;13.30;93.70
30069;DHT22;16894;49.456;10.644;2023-03-29T10:36:01;13.60;93.80
30069;DHT22;16894;49.456;10.644;2023-03-29T10:38:38;13.90;93.80
30069;DHT22;16894;49.456;10.644;2023-03-29T10:41:15;14.10;93.20
30069;DHT22;16894;49.456;10.644;2023-03-29T10:43:52;14.50;93.40
30069;DHT22;16894;49.456;10.644;2023-03-29T10:46:39;14.60;91.90
30069;DHT22;16894;49.456;10.644;2023-03-29T10:49:17;15.10;91.90
30069;DHT22;16894;49.456;10.644;2023-03-29T10:51:53;15.70;91.70
30069;DHT22;16894;49.456;10.644;2023-03-29T10:54:29;15.60;91.40
30069;DHT22;16894;49.456;10.644;2023-03-29T10:57:07;16.20;91.00
30069;DHT22;16894;49.456;10.644;2023-03-29T10:59:59;16.80;88.20
30069;DHT22;16894;49.456;10.644;2023-03-29T11:02:58;16.90;86.50
30069;DHT22;16894;49.456;10.644;2023-03-29T11:08:49;17.00;86.70
30069;DHT22;16894;49.456;10.644;2023-03-29T11:12:05;17.30;82.20
30069;DHT22;16894;49.456;10.644;2023-03-29T11:26:11;15.00;87.70
30069;DHT22;16894;49.456;10.644;2023-03-29T11:35:17;15.00;89.70
30069;DHT22;16894;49.456;10.644;2023-03-29T11:44:05;14.60;91.50
30069;DHT22;16894;49.456;10.644;2023-03-29T11:46:56;14.70;91.60
30069;DHT22;16894;49.456;10.644;2023-03-29T11:52:32;14.90;92.40
30069;DHT22;16894;49.456;10.644;2023-03-29T11:57:57;15.20;92.50
30069;DHT22;16894;49.456;10.644;2023-03-29T12:01:03;15.40;92.40
30069;DHT22;16894;49.456;10.644;2023-03-29T12:03:54;15.60;92.50
30069;DHT22;16894;49.456;10.644;2023-03-29T12:06:39;15.30;92.60
30069;DHT22;16894;49.456;10.644;2023-03-29T12:09:32;15.00;93.30
30069;DHT22;16894;49.456;10.644;2023-03-29T12:15:32;14.50;94.20
30069;DHT22;16894;49.456;10.644;2023-03-29T12:18:31;14.20;94.00
30069;DHT22;16894;49.456;10.644;2023-03-29T12:21:25;13.90;94.60
30069;DHT22;16894;49.456;10.644;2023-03-29T12:24:03;13.80;94.90
30069;DHT22;16894;49.456;10.644;2023-03-29T12:33:07;14.30;95.70
30069;DHT22;16894;49.456;10.644;2023-03-29T12:35:48;14.40;96.10
30069;DHT22;16894;49.456;10.644;2023-03-29T12:38:28;14.50;95.20
30069;DHT22;16894;49.456;10.644;2023-03-29T12:41:19;14.70;95.30
30069;DHT22;16894;49.456;10.644;2023-03-29T12:44:00;14.80;94.80
30069;DHT22;16894;49.456;10.644;2023-03-29T12:46:39;15.40;94.60
30069;DHT22;16894;49.456;10.644;2023-03-29T12:49:30;15.90;92.30
30069;DHT22;16894;49.456;10.644;2023-03-29T12:55:45;16.40;91.60
30069;DHT22;16894;49.456;10.644;2023-03-29T13:01:30;16.80;90.80
30069;DHT22;16894;49.456;10.644;2023-03-29T13:06:56;17.20;90.20
30069;DHT22;16894;49.456;10.644;2023-03-29T13:10:27;18.00;88.80
30069;DHT22;16894;49.456;10.644;2023-03-29T13:13:17;18.90;86.00
30069;DHT22;16894;49.456;10.644;2023-03-29T13:16:16;19.30;83.50
30069;DHT22;16894;49.456;10.644;2023-03-29T13:19:08;19.00;82.80
30069;DHT22;16894;49.456;10.644;2023-03-29T13:25:13;17.70;83.90
30069;DHT22;16894;49.456;10.644;2023-03-29T13:28:10;17.20;85.90
30069;DHT22;16894;49.456;10.644;2023-03-29T13:31:05;17.00;87.30
30069;DHT22;16894;49.456;10.644;2023-03-29T13:34:19;16.60;88.30
30069;DHT22;16894;49.456;10.644;2023-03-29T13:39:47;16.10;90.50
30069;DHT22;16894;49.456;10.644;2023-03-29T13:42:37;15.90;90.40
30069;DHT22;16894;49.456;10.644;2023-03-29T13:48:24;15.90;88.80
30069;DHT22;16894;49.456;10.644;2023-03-29T13:51:03;15.70;88.20
30069;DHT22;16894;49.456;10.644;2023-03-29T13:54:16;15.50;88.70
30069;DHT22;16894;49.456;10.644;2023-03-29T13:57:04;15.50;88.80
30069;DHT22;16894;49.456;10.644;2023-03-29T14:02:56;15.40;89.40
30069;DHT22;16894;49.456;10.644;2023-03-29T14:05:37;15.20;90.60
30069;DHT22;16894;49.456;10.644;2023-03-29T14:08:29;15.20;91.20
30069;DHT22;16894;49.456;10.644;2023-03-29T14:11:07;14.80;91.10
30069;DHT22;16894;49.456;10.644;2023-03-29T14:13:46;14.80;91.50
30069;DHT22;16894;49.456;10.644;2023-03-29T14:16:29;15.00;90.80
30069;DHT22;16894;49.456;10.644;2023-03-29T14:19:28;15.00;91.10
30069;DHT22;16894;49.456;10.644;2023-03-29T14:22:11;15.00;91.30
30069;DHT22;16894;49.456;10.644;2023-03-29T14:24:52;15.00;91.40
30069;DHT22;16894;49.456;10.644;2023-03-29T14:27:30;15.10;90.70
30069;DHT22;16894;49.456;10.644;2023-03-29T14:30:26;15.20;90.80
30069;DHT22;16894;49.456;10.644;2023-03-29T14:33:03;15.10;90.30
30069;DHT22;16894;49.456;10.644;2023-03-29T14:35:39;15.20;90.80
30069;DHT22;16894;49.456;10.644;2023-03-29T14:38:15;15.40;90.80
30069;DHT22;16894;49.456;10.644;2023-03-29T14:40:51;15.50;90.50
30069;DHT22;16894;49.456;10.644;2023-03-29T14:43:28;15.60;90.70
30069;DHT22;16894;49.456;10.644;2023-03-29T14:46:06;15.80;91.00
30069;DHT22;16894;49.456;10.644;2023-03-29T14:48:42;16.60;90.20
30069;DHT22;16894;49.456;10.644;2023-03-29T14:51:18;18.30;87.60
30069;DHT22;16894;49.456;10.644;2023-03-29T14:53:59;19.80;81.60
30069;DHT22;16894;49.456;10.644;2023-03-29T14:56:37;20.40;80.30
30069;DHT22;16894;49.456;10.644;2023-03-29T15:02:02;19.10;80.40
30069;DHT22;16894;49.456;10.644;2023-03-29T15:04:37;17.90;83.10
30069;DHT22;16894;49.456;10.644;2023-03-29T15:07:13;17.60;84.60
30069;DHT22;16894;49.456;10.644;2023-03-29T15:09:49;17.00;86.30
30069;DHT22;16894;49.456;10.644;2023-03-29T15:12:29;17.20;85.90
30069;DHT22;16894;49.456;10.644;2023-03-29T15:15:08;17.00;86.30
30069;DHT22;16894;49.456;10.644;2023-03-29T15:17:46;16.80;88.00
30069;DHT22;16894;49.456;10.644;2023-03-29T15:20:33;16.60;88.00
30069;DHT22;16894;49.456;10.644;2023-03-29T15:29:04;16.40;89.00
30069;DHT22;16894;49.456;10.644;2023-03-29T15:31:53;16.10;90.40
30069;DHT22;16894;49.456;10.644;2023-03-29T15:34:31;15.60;89.50
30069;DHT22;16894;49.456;10.644;2023-03-29T15:37:10;15.60;89.90
30069;DHT22;16894;49.456;10.644;2023-03-29T15:39:47;15.50;90.10
30069;DHT22;16894;49.456;10.644;2023-03-29T15:42:23;15.20;89.70
30069;DHT22;16894;49.456;10.644;2023-03-29T15:45:02;15.00;90.20
30069;DHT22;16894;49.456;10.644;2023-03-29T15:47:39;14.90;90.90
30069;DHT22;16894;49.456;10.644;2023-03-29T15:50:15;14.60;90.80
30069;DHT22;16894;49.456;10.644;2023-03-29T15:52:51;14.50;91.10
30069;DHT22;16894;49.456;10.644;2023-03-29T15:55:31;14.40;91.00
30069;DHT22;16894;49.456;10.644;2023-03-29T15:58:07;14.20;91.60
30069;DHT22;16894;49.456;10.644;2023-03-29T16:00:49;14.20;92.20
30069;DHT22;16894;49.456;10.644;2023-03-29T16:03:25;14.20;91.50
30069;DHT22;16894;49.456;10.644;2023-03-29T16:06:04;14.20;92.10
30069;DHT22;16894;49.456;10.644;2023-03-29T16:08:40;14.20;92.20
30069;DHT22;16894;49.456;10.644;2023-03-29T16:11:16;14.20;92.20
30069;DHT22;16894;49.456;10.644;2023-03-29T16:13:51;14.30;91.80
30069;DHT22;16894;49.456;10.644;2023-03-29T16:16:27;14.30;92.40
30069;DHT22;16894;49.456;10.644;2023-03-29T16:19:02;14.30;92.10
30069;DHT22;16894;49.456;10.644;2023-03-29T16:21:38;14.20;92.00
30069;DHT22;16894;49.456;10.644;2023-03-29T16:24:17;14.20;92.00
30069;DHT22;16894;49.456;10.644;2023-03-29T16:26:55;14.20;92.20
30069;DHT22;16894;49.456;10.644;2023-03-29T16:29:30;14.20;91.90
30069;DHT22;16894;49.456;10.644;2023-03-29T16:32:06;14.20;91.60
30069;DHT22;16894;49.456;10.644;2023-03-29T16:34:42;14.20;92.00
30069;DHT22;16894;49.456;10.644;2023-03-29T16:37:17;14.00;91.30
30069;DHT22;16894;49.456;10.644;2023-03-29T16:39:53;14.00;91.90
30069;DHT22;16894;49.456;10.644;2023-03-29T16:42:30;14.00;91.80
30069;DHT22;16894;49.456;10.644;2023-03-29T16:45:12;13.90;92.40
30069;DHT22;16894;49.456;10.644;2023-03-29T16:47:48;13.80;92.50
30069;DHT22;16894;49.456;10.644;2023-03-29T16:50:23;13.70;92.90
30069;DHT22;16894;49.456;10.644;2023-03-29T16:52:59;13.60;93.30
30069;DHT22;16894;49.456;10.644;2023-03-29T16:55:35;13.60;93.90
30069;DHT22;16894;49.456;10.644;2023-03-29T16:58:12;13.50;93.80
30069;DHT22;16894;49.456;10.644;2023-03-29T17:00:48;13.40;94.30
30069;DHT22;16894;49.456;10.644;2023-03-29T17:03:26;13.40;94.20
30069;DHT22;16894;49.456;10.644;2023-03-29T17:06:02;13.30;94.50
30069;DHT22;16894;49.456;10.644;2023-03-29T17:08:38;13.30;94.90
30069;DHT22;16894;49.456;10.644;2023-03-29T17:11:14;13.20;95.00
30069;DHT22;16894;49.456;10.644;2023-03-29T17:13:50;13.10;96.30
30069;DHT22;16894;49.456;10.644;2023-03-29T17:16:25;13.00;97.00
30069;DHT22;16894;49.456;10.644;2023-03-29T17:19:03;12.90;97.50
30069;DHT22;16894;49.456;10.644;2023-03-29T17:21:38;12.80;98.20
30069;DHT22;16894;49.456;10.644;2023-03-29T17:24:14;12.80;98.80
30069;DHT22;16894;49.456;10.644;2023-03-29T17:26:49;12.70;98.70
30069;DHT22;16894;49.456;10.644;2023-03-29T17:29:25;12.70;98.40
30069;DHT22;16894;49.456;10.644;2023-03-29T17:32:01;12.70;98.90
30069;DHT22;16894;49.456;10.644;2023-03-29T17:34:36;12.60;99.40
30069;DHT22;16894;49.456;10.644;2023-03-29T17:37:13;12.60;99.90
30069;DHT22;16894;49.456;10.644;2023-03-29T17:39:49;12.50;99.90
30069;DHT22;16894;49.456;10.644;2023-03-29T17:42:24;12.40;99.80
30069;DHT22;16894;49.456;10.644;2023-03-29T17:45:00;12.40;99.90
30069;DHT22;16894;49.456;10.644;2023-03-29T17:47:37;12.40;99.90
30069;DHT22;16894;49.456;10.644;2023-03-29T17:50:12;12.40;99.90
30069;DHT22;16894;49.456;10.644;2023-03-29T17:52:48;12.40;99.90
30069;DHT22;16894;49.456;10.644;2023-03-29T17:55:24;12.40;99.90
30069;DHT22;16894;49.456;10.644;2023-03-29T17:58:00;12.40;99.90
30069;DHT22;16894;49.456;10.644;2023-03-29T18:00:36;12.40;99.90
30069;DHT22;16894;49.456;10.644;2023-03-29T18:03:12;12.30;99.90
30069;DHT22;16894;49.456;10.644;2023-03-29T18:05:47;12.40;99.90
30069;DHT22;16894;49.456;10.644;2023-03-29T18:08:23;12.40;99.90
30069;DHT22;16894;49.456;10.644;2023-03-29T18:11:20;12.50;99.90
30069;DHT22;16894;49.456;10.644;2023-03-29T18:13:59;12.50;99.90
30069;DHT22;16894;49.456;10.644;2023-03-29T18:16:35;12.60;99.90
30069;DHT22;16894;49.456;10.644;2023-03-29T18:19:10;12.60;99.90
30069;DHT22;16894;49.456;10.644;2023-03-29T18:21:47;12.60;99.90
30069;DHT22;16894;49.456;10.644;2023-03-29T18:24:23;12.70;99.90
30069;DHT22;16894;49.456;10.644;2023-03-29T18:26:59;12.70;99.90
30069;DHT22;16894;49.456;10.644;2023-03-29T18:29:34;12.70;99.90